Time;durP1;ratioP1;P1;durP2;ratioP2;P2;SDS_P1;SDS_P2;PMS_P1;PMS_P2;Temp;Humidity;BMP_temperature;BMP_pressure;BME280_temperature;BME280_humidity;BME280_pressure;Samples;Min_cycle;Max_cycle;Signal;HPM_P1;HPM_P2
2023/12/14 00:00:27;;;;;;;15.20;3.30;;;;;;;;;;5090984;28;20036;-49
2023/12/14 00:02:54;;;;;;;11.70;2.92;;;;;;;;;;5095567;28;20398;-50
2023/12/14 00:05:21;;;;;;;16.15;3.05;;;;;;;;;;5095451;28;20712;-56
2023/12/14 00:07:48;;;;;;;16.10;3.13;;;;;;;;;;5095786;28;20062;-54
2023/12/14 00:10:16;;;;;;;14.27;3.08;;;;;;;;;;5094716;28;20474;-48
2023/12/14 00:12:43;;;;;;;15.32;3.00;;;;;;;;;;5094358;28;20065;-51
2023/12/14 00:15:10;;;;;;;14.07;3.33;;;;;;;;;;5094233;28;20046;-47
2023/12/14 00:17:37;;;;;;;12.50;3.40;;;;;;;;;;5095152;28;20036;-50
2023/12/14 00:20:05;;;;;;;18.75;3.17;;;;;;;;;;5095091;28;20076;-50
2023/12/14 00:22:32;;;;;;;12.98;3.13;;;;;;;;;;5096548;28;20069;-56
2023/12/14 00:24:59;;;;;;;14.40;3.20;;;;;;;;;;5095366;28;20467;-52
2023/12/14 00:27:26;;;;;;;9.75;3.03;;;;;;;;;;5096980;28;20037;-58
2023/12/14 00:29:53;;;;;;;14.25;3.10;;;;;;;;;;5094829;28;20082;-53
2023/12/14 00:32:20;;;;;;;14.77;2.83;;;;;;;;;;5095458;28;20039;-53
2023/12/14 00:34:46;;;;;;;13.63;3.58;;;;;;;;;;5094290;28;20490;-54
2023/12/14 00:37:13;;;;;;;10.45;2.80;;;;;;;;;;5094995;28;20029;-49
2023/12/14 00:39:40;;;;;;;18.40;3.60;;;;;;;;;;5094974;28;20102;-54
2023/12/14 00:42:07;;;;;;;13.25;3.38;;;;;;;;;;5095089;28;20043;-55
2023/12/14 00:44:34;;;;;;;15.48;3.10;;;;;;;;;;5095214;28;20505;-51
2023/12/14 00:47:02;;;;;;;14.80;2.83;;;;;;;;;;5094621;28;20032;-59
2023/12/14 00:49:29;;;;;;;8.68;3.10;;;;;;;;;;5094475;28;20032;-52
2023/12/14 00:51:56;;;;;;;17.58;3.38;;;;;;;;;;5094293;28;20055;-51
2023/12/14 00:54:23;;;;;;;14.00;3.53;;;;;;;;;;5094079;28;20478;-50
2023/12/14 00:56:50;;;;;;;9.48;2.80;;;;;;;;;;5094496;28;20024;-53
2023/12/14 00:59:17;;;;;;;10.75;3.05;;;;;;;;;;5094308;28;20024;-53
2023/12/14 01:01:44;;;;;;;9.35;2.97;;;;;;;;;;5096232;28;20048;-58
2023/12/14 01:04:11;;;;;;;8.55;2.83;;;;;;;;;;5095419;28;20081;-52
2023/12/14 01:06:38;;;;;;;10.82;2.97;;;;;;;;;;5095372;28;20028;-58
2023/12/14 01:09:05;;;;;;;13.73;3.38;;;;;;;;;;5095225;28;20032;-53
2023/12/14 01:11:32;;;;;;;14.07;2.78;;;;;;;;;;5066990;28;20035;-57
2023/12/14 01:13:59;;;;;;;12.32;3.08;;;;;;;;;;5082912;28;20024;-57
2023/12/14 01:16:29;;;;;;;11.35;2.97;;;;;;;;;;5066704;28;20028;-56
2023/12/14 01:18:56;;;;;;;12.93;2.80;;;;;;;;;;5068217;28;20050;-49
2023/12/14 01:21:23;;;;;;;18.77;2.70;;;;;;;;;;5072771;28;20425;-48
2023/12/14 01:23:51;;;;;;;20.77;2.50;;;;;;;;;;5071386;28;20035;-47
2023/12/14 01:26:18;;;;;;;10.07;2.10;;;;;;;;;;5065166;28;20044;-49
2023/12/14 01:28:45;;;;;;;9.68;2.17;;;;;;;;;;5070826;28;20024;-48
2023/12/14 01:31:12;;;;;;;51.60;5.32;;;;;;;;;;5070544;28;20028;-48
2023/12/14 01:33:39;;;;;;;24.83;4.05;;;;;;;;;;5071470;28;20036;-49
2023/12/14 01:36:06;;;;;;;36.08;4.60;;;;;;;;;;5067040;28;20433;-47
2023/12/14 01:38:33;;;;;;;35.92;4.30;;;;;;;;;;5072576;28;20025;-48
2023/12/14 01:41:00;;;;;;;21.30;3.05;;;;;;;;;;5068508;28;20035;-48
2023/12/14 01:43:27;;;;;;;15.13;2.35;;;;;;;;;;5068196;28;20062;-48
2023/12/14 01:45:54;;;;;;;16.42;2.50;;;;;;;;;;5054054;28;20060;-48
2023/12/14 01:48:21;;;;;;;18.85;2.10;;;;;;;;;;5052725;28;20028;-48
2023/12/14 01:50:48;;;;;;;12.07;2.20;;;;;;;;;;5071029;28;20037;-49
2023/12/14 01:53:15;;;;;;;18.35;2.55;;;;;;;;;;5070179;28;20059;-51
2023/12/14 01:55:42;;;;;;;11.10;1.85;;;;;;;;;;5068463;28;20055;-49
2023/12/14 01:58:09;;;;;;;14.55;2.70;;;;;;;;;;5051289;28;20058;-48
2023/12/14 02:00:50;;;;;;;15.57;2.33;;;;;;;;;;5069046;28;20055;-48
2023/12/14 02:03:17;;;;;;;12.93;2.03;;;;;;;;;;5066549;28;20494;-47
2023/12/14 02:05:44;;;;;;;15.18;2.45;;;;;;;;;;5060120;28;20040;-47
2023/12/14 02:08:11;;;;;;;14.65;2.20;;;;;;;;;;5058488;28;20032;-49
2023/12/14 02:10:38;;;;;;;11.50;1.58;;;;;;;;;;5070042;28;20394;-47
2023/12/14 02:13:05;;;;;;;17.50;1.80;;;;;;;;;;5071127;28;20035;-49
2023/12/14 02:15:32;;;;;;;15.20;1.90;;;;;;;;;;5072092;28;20360;-47
2023/12/14 02:17:59;;;;;;;6.90;1.92;;;;;;;;;;5071540;28;20032;-49
2023/12/14 02:20:26;;;;;;;14.07;1.55;;;;;;;;;;5071778;28;20474;-47
2023/12/14 02:22:54;;;;;;;10.50;1.70;;;;;;;;;;5071579;28;20499;-47
2023/12/14 02:25:21;;;;;;;7.60;1.40;;;;;;;;;;5071613;28;20390;-49
2023/12/14 02:27:49;;;;;;;9.15;1.40;;;;;;;;;;5071624;28;20839;-48
2023/12/14 02:30:16;;;;;;;14.77;1.50;;;;;;;;;;5071658;28;20024;-48
2023/12/14 02:32:43;;;;;;;11.73;1.65;;;;;;;;;;5060179;28;20514;-49
2023/12/14 02:35:10;;;;;;;11.25;1.33;;;;;;;;;;5070156;28;20070;-48
2023/12/14 02:37:37;;;;;;;7.90;1.50;;;;;;;;;;5071668;28;20035;-48
2023/12/14 02:40:05;;;;;;;10.93;1.30;;;;;;;;;;5071478;28;20474;-49
2023/12/14 02:42:32;;;;;;;8.75;1.60;;;;;;;;;;5071401;28;20033;-48
2023/12/14 02:44:59;;;;;;;6.60;1.40;;;;;;;;;;5071415;28;20035;-48
2023/12/14 02:47:26;;;;;;;13.02;1.30;;;;;;;;;;5071579;28;20054;-49
2023/12/14 02:49:53;;;;;;;8.70;1.33;;;;;;;;;;5071153;28;20074;-47
2023/12/14 02:52:20;;;;;;;9.55;1.48;;;;;;;;;;5071434;28;20036;-48
2023/12/14 02:54:47;;;;;;;12.00;1.40;;;;;;;;;;5071334;28;20028;-48
2023/12/14 02:57:14;;;;;;;9.48;1.40;;;;;;;;;;5071417;28;20035;-47
2023/12/14 02:59:41;;;;;;;9.55;1.48;;;;;;;;;;5058068;28;20039;-48
2023/12/14 03:02:08;;;;;;;7.55;1.50;;;;;;;;;;5071084;28;20049;-48
2023/12/14 03:04:35;;;;;;;9.02;1.33;;;;;;;;;;5071405;28;20475;-48
2023/12/14 03:07:02;;;;;;;6.25;1.35;;;;;;;;;;5071208;28;20028;-47
2023/12/14 03:09:32;;;;;;;10.40;1.48;;;;;;;;;;5071391;28;20039;-47
2023/12/14 03:12:00;;;;;;;9.68;1.50;;;;;;;;;;5070899;28;20474;-48
2023/12/14 03:14:27;;;;;;;8.75;1.45;;;;;;;;;;5071063;28;20032;-49
2023/12/14 03:16:54;;;;;;;7.40;1.40;;;;;;;;;;5070953;28;20562;-49
2023/12/14 03:19:21;;;;;;;15.52;1.35;;;;;;;;;;5071137;28;20500;-47
2023/12/14 03:21:48;;;;;;;9.18;1.50;;;;;;;;;;5070899;28;20033;-47
2023/12/14 03:24:15;;;;;;;9.80;1.23;;;;;;;;;;5073067;28;20020;-48
2023/12/14 03:26:42;;;;;;;9.45;1.67;;;;;;;;;;5075124;28;20482;-47
2023/12/14 03:29:09;;;;;;;7.75;1.17;;;;;;;;;;5075208;28;20543;-47
2023/12/14 03:31:36;;;;;;;5.93;1.17;;;;;;;;;;5075095;28;20431;-47
2023/12/14 03:34:03;;;;;;;8.35;1.25;;;;;;;;;;5074878;28;20032;-48
2023/12/14 03:36:30;;;;;;;9.82;1.50;;;;;;;;;;5074766;28;20044;-48
2023/12/14 03:38:57;;;;;;;9.10;1.40;;;;;;;;;;5074922;28;20028;-50
2023/12/14 03:41:24;;;;;;;11.77;1.30;;;;;;;;;;5074655;28;20035;-48
2023/12/14 03:43:51;;;;;;;7.28;1.40;;;;;;;;;;5047232;28;20052;-48
2023/12/14 03:46:18;;;;;;;4.90;1.30;;;;;;;;;;5070925;28;20067;-48
2023/12/14 03:48:45;;;;;;;5.00;1.33;;;;;;;;;;5074681;28;20074;-47
2023/12/14 03:51:12;;;;;;;7.93;1.15;;;;;;;;;;5074391;28;20039;-46
2023/12/14 03:53:39;;;;;;;9.48;1.50;;;;;;;;;;5074608;28;20024;-48
2023/12/14 03:56:07;;;;;;;7.88;1.73;;;;;;;;;;5074314;28;20035;-48
2023/12/14 03:58:33;;;;;;;8.30;1.58;;;;;;;;;;5074563;28;20077;-47
2023/12/14 04:01:00;;;;;;;8.00;1.42;;;;;;;;;;5074344;28;20033;-47
2023/12/14 04:03:27;;;;;;;12.15;2.33;;;;;;;;;;5074189;28;20056;-47
2023/12/14 04:05:54;;;;;;;11.68;1.35;;;;;;;;;;5074319;28;20432;-46
2023/12/14 04:08:21;;;;;;;14.48;1.65;;;;;;;;;;5073177;28;20028;-50
2023/12/14 04:10:48;;;;;;;15.77;1.52;;;;;;;;;;5085679;28;20032;-47
2023/12/14 04:13:15;;;;;;;9.98;1.33;;;;;;;;;;5094125;28;20020;-48
2023/12/14 04:15:42;;;;;;;10.43;1.70;;;;;;;;;;5088786;28;20024;-49
2023/12/14 04:18:09;;;;;;;13.98;1.60;;;;;;;;;;5078529;28;20033;-47
2023/12/14 04:20:36;;;;;;;8.02;1.48;;;;;;;;;;5088366;28;20039;-48
2023/12/14 04:23:03;;;;;;;11.23;1.50;;;;;;;;;;5093513;28;20524;-48
2023/12/14 04:25:30;;;;;;;7.90;1.77;;;;;;;;;;5093845;28;20377;-49
2023/12/14 04:27:57;;;;;;;16.30;1.92;;;;;;;;;;5093817;28;20024;-47
2023/12/14 04:30:24;;;;;;;9.93;1.70;;;;;;;;;;5093596;28;20135;-50
2023/12/14 04:32:51;;;;;;;13.20;1.83;;;;;;;;;;5088814;28;20027;-48
2023/12/14 04:35:18;;;;;;;7.88;1.52;;;;;;;;;;5068043;28;20540;-49
2023/12/14 04:37:45;;;;;;;11.90;1.67;;;;;;;;;;5061131;28;20104;-51
2023/12/14 04:40:12;;;;;;;9.32;1.48;;;;;;;;;;5053822;28;20372;-48
2023/12/14 04:42:39;;;;;;;9.07;1.60;;;;;;;;;;5067806;28;20083;-47
2023/12/14 04:45:08;;;;;;;13.70;1.75;;;;;;;;;;5052315;28;20043;-50
2023/12/14 04:47:36;;;;;;;8.32;1.40;;;;;;;;;;5053642;28;20033;-51
2023/12/14 04:50:03;;;;;;;8.85;1.52;;;;;;;;;;5060282;28;20090;-48
2023/12/14 04:52:30;;;;;;;6.95;1.50;;;;;;;;;;5068468;28;20020;-48
2023/12/14 04:54:57;;;;;;;10.00;1.90;;;;;;;;;;5071904;28;20454;-49
2023/12/14 04:57:24;;;;;;;13.88;1.80;;;;;;;;;;5073386;28;20036;-53
2023/12/14 04:59:51;;;;;;;10.38;1.30;;;;;;;;;;5073168;28;20029;-50
2023/12/14 05:02:18;;;;;;;9.85;1.77;;;;;;;;;;5069605;28;20084;-48
2023/12/14 05:04:45;;;;;;;8.30;1.35;;;;;;;;;;5073010;28;20036;-47
2023/12/14 05:07:12;;;;;;;7.97;1.35;;;;;;;;;;5073386;28;20024;-47
2023/12/14 05:09:39;;;;;;;7.10;1.60;;;;;;;;;;5072836;28;20028;-47
2023/12/14 05:12:06;;;;;;;8.00;1.52;;;;;;;;;;5070799;28;20033;-48
2023/12/14 05:14:33;;;;;;;9.00;1.65;;;;;;;;;;5071846;28;20086;-47
2023/12/14 05:17:00;;;;;;;7.75;1.77;;;;;;;;;;5072856;28;20051;-49
2023/12/14 05:19:26;;;;;;;8.57;1.70;;;;;;;;;;5072699;28;20483;-49
2023/12/14 05:21:54;;;;;;;7.57;1.40;;;;;;;;;;5071378;28;20094;-48
2023/12/14 05:24:21;;;;;;;11.82;1.45;;;;;;;;;;5072929;28;20376;-48
2023/12/14 05:26:48;;;;;;;6.13;1.20;;;;;;;;;;5073020;28;20036;-47
2023/12/14 05:29:15;;;;;;;8.30;1.70;;;;;;;;;;5072941;28;20471;-49
2023/12/14 05:31:42;;;;;;;6.05;1.38;;;;;;;;;;5072768;28;20032;-47
2023/12/14 05:34:09;;;;;;;3.78;1.13;;;;;;;;;;5072842;28;20033;-48
2023/12/14 05:36:36;;;;;;;7.40;1.67;;;;;;;;;;5072738;28;20040;-52
2023/12/14 05:39:04;;;;;;;10.35;1.48;;;;;;;;;;5072858;28;20090;-49
2023/12/14 05:41:31;;;;;;;7.55;1.40;;;;;;;;;;5072427;28;20032;-47
2023/12/14 05:43:58;;;;;;;7.25;1.35;;;;;;;;;;5072424;28;20436;-47
2023/12/14 05:46:25;;;;;;;8.95;1.60;;;;;;;;;;5071704;28;20024;-51
2023/12/14 05:48:52;;;;;;;6.45;1.52;;;;;;;;;;5072542;28;20021;-48
2023/12/14 05:51:32;;;;;;;6.55;1.42;;;;;;;;;;5072278;28;20033;-48
2023/12/14 05:53:59;;;;;;;6.43;1.70;;;;;;;;;;5072113;28;20103;-48
2023/12/14 05:56:26;;;;;;;10.38;1.80;;;;;;;;;;5072436;28;20036;-48
2023/12/14 05:58:53;;;;;;;5.85;1.30;;;;;;;;;;5063755;28;20127;-48
2023/12/14 06:01:20;;;;;;;4.63;1.48;;;;;;;;;;5069883;28;20028;-48
2023/12/14 06:03:48;;;;;;;10.32;1.83;;;;;;;;;;5071891;28;20139;-48
2023/12/14 06:06:15;;;;;;;8.13;1.58;;;;;;;;;;5072294;28;20099;-49
2023/12/14 06:08:42;;;;;;;4.80;1.65;;;;;;;;;;5072244;28;20025;-49
2023/12/14 06:11:09;;;;;;;5.10;1.42;;;;;;;;;;5072152;28;20020;-49
2023/12/14 06:13:36;;;;;;;4.57;1.30;;;;;;;;;;5072001;28;20062;-48
2023/12/14 06:16:03;;;;;;;7.50;1.52;;;;;;;;;;5072185;28;20028;-48
2023/12/14 06:18:30;;;;;;;6.07;2.00;;;;;;;;;;5072193;28;20037;-51
2023/12/14 06:20:57;;;;;;;7.25;1.50;;;;;;;;;;5071935;28;20041;-50
2023/12/14 06:23:25;;;;;;;6.30;1.42;;;;;;;;;;5071732;28;20037;-48
2023/12/14 06:25:52;;;;;;;5.97;1.20;;;;;;;;;;5071743;28;20059;-47
2023/12/14 06:28:19;;;;;;;7.68;1.83;;;;;;;;;;5071831;28;20029;-49
2023/12/14 06:30:46;;;;;;;5.13;1.30;;;;;;;;;;5071943;28;20412;-51
2023/12/14 06:33:13;;;;;;;7.22;1.60;;;;;;;;;;5071791;28;20025;-51
2023/12/14 06:35:39;;;;;;;3.42;1.23;;;;;;;;;;5071917;28;20024;-52
2023/12/14 06:38:06;;;;;;;4.95;1.35;;;;;;;;;;5071689;28;20032;-53
2023/12/14 06:40:33;;;;;;;7.32;1.50;;;;;;;;;;5071800;28;20093;-50
2023/12/14 06:43:00;;;;;;;4.10;1.30;;;;;;;;;;5071640;28;20036;-47
2023/12/14 06:45:27;;;;;;;6.30;1.77;;;;;;;;;;5071678;28;20032;-47
2023/12/14 06:47:54;;;;;;;6.97;1.70;;;;;;;;;;5071641;28;20032;-48
2023/12/14 06:50:21;;;;;;;6.78;1.50;;;;;;;;;;5071613;28;20030;-49
2023/12/14 06:52:48;;;;;;;4.85;1.35;;;;;;;;;;5071653;28;20063;-49
2023/12/14 06:55:15;;;;;;;8.45;1.80;;;;;;;;;;5071630;28;20020;-48
2023/12/14 06:57:46;;;;;;;5.18;1.27;;;;;;;;;;5071375;28;20021;-47
2023/12/14 07:00:14;;;;;;;8.17;1.60;;;;;;;;;;5071550;28;20037;-49
2023/12/14 07:02:41;;;;;;;4.35;1.58;;;;;;;;;;5071219;28;20128;-48
2023/12/14 07:05:08;;;;;;;5.43;1.55;;;;;;;;;;5053505;28;20041;-48
2023/12/14 07:07:35;;;;;;;8.00;1.80;;;;;;;;;;5071540;28;20103;-48
2023/12/14 07:10:01;;;;;;;7.30;1.75;;;;;;;;;;5071457;28;20562;-48
2023/12/14 07:12:28;;;;;;;3.97;1.40;;;;;;;;;;5071409;28;20032;-47
2023/12/14 07:14:55;;;;;;;5.50;1.60;;;;;;;;;;5071423;28;20021;-48
2023/12/14 07:17:22;;;;;;;3.63;1.33;;;;;;;;;;5071483;28;20125;-48
2023/12/14 07:19:49;;;;;;;3.47;1.40;;;;;;;;;;5071385;28;20021;-46
2023/12/14 07:22:16;;;;;;;6.43;1.77;;;;;;;;;;5071146;28;20132;-48
2023/12/14 07:24:43;;;;;;;7.65;1.92;;;;;;;;;;5071352;28;20107;-48
2023/12/14 07:27:10;;;;;;;5.25;1.60;;;;;;;;;;5071363;28;20047;-47
2023/12/14 07:29:37;;;;;;;4.88;1.52;;;;;;;;;;5071322;28;20071;-47
2023/12/14 07:32:04;;;;;;;4.95;1.30;;;;;;;;;;5071277;28;20525;-49
2023/12/14 07:34:31;;;;;;;5.03;1.30;;;;;;;;;;5071265;28;20024;-48
2023/12/14 07:36:58;;;;;;;6.25;1.90;;;;;;;;;;5071083;28;20043;-49
2023/12/14 07:39:26;;;;;;;4.32;1.45;;;;;;;;;;5071283;28;20486;-48
2023/12/14 07:41:52;;;;;;;4.78;1.52;;;;;;;;;;5070836;28;20099;-47
2023/12/14 07:44:20;;;;;;;6.35;1.52;;;;;;;;;;5071158;28;20067;-48
2023/12/14 07:46:46;;;;;;;5.80;1.88;;;;;;;;;;5070910;28;20394;-47
2023/12/14 07:49:14;;;;;;;5.55;1.60;;;;;;;;;;5070867;28;20032;-49
2023/12/14 07:51:41;;;;;;;4.65;1.58;;;;;;;;;;5070815;28;20066;-47
2023/12/14 07:54:08;;;;;;;5.60;1.75;;;;;;;;;;5071124;28;20452;-47
2023/12/14 07:56:35;;;;;;;4.05;1.40;;;;;;;;;;5071075;28;20152;-49
2023/12/14 07:59:06;;;;;;;8.27;1.85;;;;;;;;;;5071012;28;20021;-49
2023/12/14 08:01:33;;;;;;;5.30;1.73;;;;;;;;;;5070783;28;20028;-48
2023/12/14 08:04:00;;;;;;;7.22;1.67;;;;;;;;;;5070854;28;20036;-47
2023/12/14 08:06:27;;;;;;;3.95;1.58;;;;;;;;;;5071045;28;20028;-49
2023/12/14 08:08:54;;;;;;;6.70;2.08;;;;;;;;;;5070969;28;20025;-47
2023/12/14 08:11:21;;;;;;;7.32;2.10;;;;;;;;;;5074266;28;20025;-51
2023/12/14 08:13:48;;;;;;;5.13;1.95;;;;;;;;;;5074404;28;20036;-47
2023/12/14 08:16:17;;;;;;;4.78;1.90;;;;;;;;;;5074473;28;20032;-48
2023/12/14 08:18:48;;;;;;;7.63;2.20;;;;;;;;;;5074307;28;20033;-50
2023/12/14 08:21:15;;;;;;;7.88;1.80;;;;;;;;;;5074222;28;20038;-47
2023/12/14 08:23:42;;;;;;;6.45;1.83;;;;;;;;;;5074106;28;20032;-47
2023/12/14 08:26:11;;;;;;;5.68;1.85;;;;;;;;;;5074285;28;20078;-48
2023/12/14 08:28:38;;;;;;;5.50;1.90;;;;;;;;;;5074079;28;20048;-51
2023/12/14 08:31:05;;;;;;;6.30;1.83;;;;;;;;;;5074184;28;20071;-48
2023/12/14 08:33:32;;;;;;;5.65;1.85;;;;;;;;;;5074089;28;20107;-50
2023/12/14 08:35:59;;;;;;;6.85;2.08;;;;;;;;;;5074040;28;20108;-47
2023/12/14 08:38:25;;;;;;;5.05;1.85;;;;;;;;;;5073969;28;20104;-48
2023/12/14 08:40:52;;;;;;;4.40;1.95;;;;;;;;;;5074070;28;20386;-50
2023/12/14 08:43:19;;;;;;;5.63;2.08;;;;;;;;;;5073842;28;20041;-47
2023/12/14 08:45:48;;;;;;;4.82;1.90;;;;;;;;;;5073880;28;20040;-48
2023/12/14 08:48:15;;;;;;;6.85;2.13;;;;;;;;;;5073752;28;20383;-49
2023/12/14 08:50:42;;;;;;;6.55;1.88;;;;;;;;;;5073716;28;20467;-47
2023/12/14 08:53:09;;;;;;;9.60;2.20;;;;;;;;;;5073718;28;20042;-49
2023/12/14 08:55:36;;;;;;;5.70;1.98;;;;;;;;;;5055613;28;20035;-47
2023/12/14 08:58:03;;;;;;;5.75;2.20;;;;;;;;;;5073698;28;20055;-48
2023/12/14 09:00:30;;;;;;;6.50;2.10;;;;;;;;;;5073681;28;20074;-47
2023/12/14 09:02:57;;;;;;;6.70;2.25;;;;;;;;;;5073346;28;20052;-48
2023/12/14 09:05:24;;;;;;;5.97;2.35;;;;;;;;;;5073520;28;20028;-47
2023/12/14 09:07:54;;;;;;;3.70;1.90;;;;;;;;;;5073529;28;20024;-48
2023/12/14 09:10:21;;;;;;;8.65;2.45;;;;;;;;;;5073466;28;20037;-48
2023/12/14 09:12:48;;;;;;;9.88;2.60;;;;;;;;;;5073335;28;20173;-47
2023/12/14 09:15:15;;;;;;;8.95;2.20;;;;;;;;;;5073401;28;20024;-49
2023/12/14 09:17:43;;;;;;;5.82;2.28;;;;;;;;;;5073330;28;20544;-49
2023/12/14 09:20:11;;;;;;;9.43;2.15;;;;;;;;;;5073252;28;20486;-49
2023/12/14 09:22:38;;;;;;;4.93;2.15;;;;;;;;;;5072886;28;20098;-49
2023/12/14 09:25:05;;;;;;;9.02;2.20;;;;;;;;;;5073202;28;20028;-48
2023/12/14 09:27:32;;;;;;;8.45;2.45;;;;;;;;;;5073172;28;20055;-50
2023/12/14 09:29:59;;;;;;;8.38;2.40;;;;;;;;;;5072985;28;20028;-47
2023/12/14 09:32:26;;;;;;;7.88;2.47;;;;;;;;;;5072701;28;20024;-51
2023/12/14 09:34:56;;;;;;;7.57;2.75;;;;;;;;;;5072905;28;20032;-48
2023/12/14 09:37:23;;;;;;;10.00;2.85;;;;;;;;;;5072759;28;20094;-48
2023/12/14 09:39:50;;;;;;;9.43;2.70;;;;;;;;;;5072896;28;20055;-49
2023/12/14 09:42:22;;;;;;;11.48;2.78;;;;;;;;;;5072620;28;20481;-48
2023/12/14 09:44:49;;;;;;;8.20;2.88;;;;;;;;;;5072796;28;20035;-47
2023/12/14 09:47:16;;;;;;;12.00;2.90;;;;;;;;;;5072773;28;20036;-48
2023/12/14 09:49:44;;;;;;;8.05;2.42;;;;;;;;;;5072420;28;20393;-48
2023/12/14 09:52:11;;;;;;;10.27;2.47;;;;;;;;;;5072526;28;20482;-48
2023/12/14 09:54:38;;;;;;;9.80;2.75;;;;;;;;;;5072475;28;20033;-51
2023/12/14 09:57:05;;;;;;;10.95;2.58;;;;;;;;;;5072523;28;20024;-49
2023/12/14 09:59:32;;;;;;;9.38;2.92;;;;;;;;;;5072452;28;20024;-48
2023/12/14 10:02:11;;;;;;;8.82;3.03;;;;;;;;;;5071956;28;20049;-47
2023/12/14 10:04:38;;;;;;;10.15;3.33;;;;;;;;;;5072322;28;20033;-48
2023/12/14 10:07:07;;;;;;;14.40;3.08;;;;;;;;;;5072407;28;20478;-51
2023/12/14 10:09:34;;;;;;;13.70;3.92;;;;;;;;;;5072164;28;20593;-48
2023/12/14 10:12:05;;;;;;;8.23;3.10;;;;;;;;;;5072232;28;20490;-48
2023/12/14 10:14:33;;;;;;;10.73;3.17;;;;;;;;;;5072167;28;20368;-48
2023/12/14 10:17:01;;;;;;;12.98;3.55;;;;;;;;;;5072040;28;20028;-48
2023/12/14 10:19:28;;;;;;;14.25;3.53;;;;;;;;;;5072122;28;20025;-48
2023/12/14 10:21:55;;;;;;;13.90;3.75;;;;;;;;;;5071998;28;20546;-50
2023/12/14 10:24:22;;;;;;;9.35;3.40;;;;;;;;;;5072024;28;20074;-51
2023/12/14 10:26:49;;;;;;;14.48;4.15;;;;;;;;;;5072005;28;20058;-51
2023/12/14 10:29:16;;;;;;;13.30;4.10;;;;;;;;;;5071813;28;20036;-48
2023/12/14 10:31:44;;;;;;;13.10;4.15;;;;;;;;;;5053718;28;20021;-48
2023/12/14 10:34:12;;;;;;;16.13;4.35;;;;;;;;;;5071575;28;20095;-49
2023/12/14 10:36:39;;;;;;;18.50;4.40;;;;;;;;;;5071672;28;20036;-47
2023/12/14 10:39:09;;;;;;;11.68;3.83;;;;;;;;;;5071834;28;20421;-51
2023/12/14 10:41:37;;;;;;;9.00;3.70;;;;;;;;;;5071722;28;20098;-48
2023/12/14 10:44:04;;;;;;;21.38;4.18;;;;;;;;;;5071645;28;20103;-48
2023/12/14 10:46:31;;;;;;;13.88;4.10;;;;;;;;;;5071696;28;20563;-48
2023/12/14 10:48:58;;;;;;;12.15;3.65;;;;;;;;;;5053593;28;20447;-48
2023/12/14 10:51:27;;;;;;;9.60;3.78;;;;;;;;;;5071568;28;20040;-51
2023/12/14 10:53:54;;;;;;;11.02;4.35;;;;;;;;;;5071693;28;20035;-50
2023/12/14 10:56:21;;;;;;;12.55;4.43;;;;;;;;;;5071649;28;20074;-48
2023/12/14 10:58:55;;;;;;;24.73;4.75;;;;;;;;;;5071612;28;20060;-51
2023/12/14 11:01:27;;;;;;;14.00;4.55;;;;;;;;;;5068164;28;20112;-48
2023/12/14 11:04:00;;;;;;;11.20;3.92;;;;;;;;;;5071596;28;20048;-47
2023/12/14 11:06:30;;;;;;;12.48;4.60;;;;;;;;;;5078711;28;20525;-47
2023/12/14 11:09:13;;;;;;;11.43;4.43;;;;;;;;;;5070580;28;20047;-49
2023/12/14 11:11:48;;;;;;;10.02;4.43;;;;;;;;;;5073223;28;21778;-51
2023/12/14 11:14:18;;;;;;;11.55;4.82;;;;;;;;;;5060691;28;20139;-48
2023/12/14 11:16:46;;;;;;;12.32;4.40;;;;;;;;;;5059378;28;20025;-49
2023/12/14 11:19:25;;;;;;;13.25;4.20;;;;;;;;;;5059755;28;20025;-51
2023/12/14 11:21:55;;;;;;;9.68;3.75;;;;;;;;;;5059352;28;20380;-48
2023/12/14 11:24:22;;;;;;;12.02;3.75;;;;;;;;;;5060438;28;20025;-49
2023/12/14 11:26:52;;;;;;;17.77;4.30;;;;;;;;;;5061639;28;20031;-51
2023/12/14 11:29:21;;;;;;;11.98;4.05;;;;;;;;;;5060571;28;20029;-48
2023/12/14 11:31:50;;;;;;;9.13;3.42;;;;;;;;;;5058851;28;22440;-54
2023/12/14 11:34:17;;;;;;;12.10;3.80;;;;;;;;;;5060224;28;20551;-49
2023/12/14 11:36:45;;;;;;;10.77;4.13;;;;;;;;;;5061395;28;20032;-50
2023/12/14 11:39:12;;;;;;;11.93;3.88;;;;;;;;;;5059991;28;20391;-53
2023/12/14 11:41:39;;;;;;;9.02;3.83;;;;;;;;;;5053774;28;20044;-47
2023/12/14 11:44:07;;;;;;;13.77;4.07;;;;;;;;;;5071106;28;20380;-52
2023/12/14 11:46:34;;;;;;;9.35;4.18;;;;;;;;;;5074768;28;20039;-49
2023/12/14 11:49:03;;;;;;;11.50;3.90;;;;;;;;;;5074582;28;20490;-48
2023/12/14 11:51:31;;;;;;;15.73;4.43;;;;;;;;;;5063708;28;20502;-49
2023/12/14 11:54:02;;;;;;;14.57;4.38;;;;;;;;;;5063588;28;20024;-50
2023/12/14 11:56:30;;;;;;;15.35;4.57;;;;;;;;;;5062963;28;20040;-48
2023/12/14 11:58:57;;;;;;;12.15;4.05;;;;;;;;;;5063653;28;20040;-49
2023/12/14 12:01:28;;;;;;;18.67;4.47;;;;;;;;;;5059600;28;20037;-48
2023/12/14 12:03:55;;;;;;;14.10;4.53;;;;;;;;;;5014603;28;20057;-49
2023/12/14 12:06:30;;;;;;;15.10;4.30;;;;;;;;;;5031364;28;20033;-48
2023/12/14 12:08:57;;;;;;;11.68;4.25;;;;;;;;;;5031439;28;20037;-48
2023/12/14 12:11:27;;;;;;;18.52;4.38;;;;;;;;;;5034350;28;20111;-50
2023/12/14 12:13:54;;;;;;;15.23;4.47;;;;;;;;;;5034523;28;20067;-47
2023/12/14 12:16:22;;;;;;;18.50;4.38;;;;;;;;;;5033220;28;20076;-50
2023/12/14 12:18:50;;;;;;;14.95;4.38;;;;;;;;;;5034672;28;20040;-48
2023/12/14 12:21:17;;;;;;;10.63;3.97;;;;;;;;;;5039160;28;20044;-49
2023/12/14 12:23:44;;;;;;;12.43;4.30;;;;;;;;;;5041180;28;20078;-51
2023/12/14 12:26:11;;;;;;;12.15;4.38;;;;;;;;;;5033492;28;20103;-51
2023/12/14 12:28:38;;;;;;;20.23;4.18;;;;;;;;;;5024101;28;20044;-56
2023/12/14 12:31:05;;;;;;;17.52;4.60;;;;;;;;;;5021737;28;20037;-50
2023/12/14 12:33:37;;;;;;;13.82;3.92;;;;;;;;;;5017153;28;20497;-47
2023/12/14 12:36:05;;;;;;;17.23;4.30;;;;;;;;;;5027012;28;20040;-46
2023/12/14 12:38:32;;;;;;;14.55;3.53;;;;;;;;;;5032475;28;20083;-38
2023/12/14 12:41:00;;;;;;;15.38;3.92;;;;;;;;;;5033547;28;20040;-41
2023/12/14 12:43:27;;;;;;;10.23;3.65;;;;;;;;;;5033216;28;20108;-44
2023/12/14 12:45:54;;;;;;;20.38;5.47;;;;;;;;;;5044064;28;20024;-45
2023/12/14 12:48:21;;;;;;;16.27;4.03;;;;;;;;;;5030365;28;20392;-44
2023/12/14 12:50:48;;;;;;;16.70;3.95;;;;;;;;;;5031711;28;20033;-44
2023/12/14 12:53:15;;;;;;;12.95;3.70;;;;;;;;;;5033341;28;20030;-46
2023/12/14 12:55:42;;;;;;;22.48;4.35;;;;;;;;;;5029523;28;20053;-39
2023/12/14 12:58:08;;;;;;;30.88;4.10;;;;;;;;;;5021586;28;20038;-44
2023/12/14 13:00:37;;;;;;;14.48;3.45;;;;;;;;;;5025059;28;20036;-44
2023/12/14 13:03:04;;;;;;;15.82;3.92;;;;;;;;;;5058811;28;20053;-45
2023/12/14 13:05:31;;;;;;;17.42;3.63;;;;;;;;;;5073244;28;20024;-47
2023/12/14 13:07:58;;;;;;;17.38;4.40;;;;;;;;;;5073247;28;20060;-47
2023/12/14 13:10:27;;;;;;;18.50;3.88;;;;;;;;;;5071829;28;20164;-44
2023/12/14 13:12:54;;;;;;;20.17;3.58;;;;;;;;;;5072846;28;20032;-46
2023/12/14 13:15:26;;;;;;;14.25;3.63;;;;;;;;;;5073355;28;20028;-44
2023/12/14 13:17:53;;;;;;;14.25;3.33;;;;;;;;;;5073270;28;20082;-46
2023/12/14 13:20:21;;;;;;;20.10;3.53;;;;;;;;;;5073293;28;20036;-46
2023/12/14 13:22:48;;;;;;;15.27;3.20;;;;;;;;;;5073149;28;20834;-46
2023/12/14 13:25:16;;;;;;;16.17;3.75;;;;;;;;;;5073187;28;20078;-46
2023/12/14 13:27:43;;;;;;;20.17;3.17;;;;;;;;;;5073134;28;20028;-45
2023/12/14 13:30:10;;;;;;;25.88;3.72;;;;;;;;;;5073015;28;20016;-45
2023/12/14 13:32:37;;;;;;;28.75;4.10;;;;;;;;;;5072839;28;20055;-46
2023/12/14 13:35:05;;;;;;;28.33;3.33;;;;;;;;;;5072973;28;20017;-45
2023/12/14 13:37:32;;;;;;;21.77;3.15;;;;;;;;;;5072936;28;20024;-44
2023/12/14 13:39:59;;;;;;;14.80;3.15;;;;;;;;;;5054835;28;20111;-46
2023/12/14 13:42:26;;;;;;;15.90;3.25;;;;;;;;;;5072558;28;20031;-46
2023/12/14 13:44:53;;;;;;;23.83;3.85;;;;;;;;;;5072819;28;20588;-46
2023/12/14 13:47:20;;;;;;;21.60;3.13;;;;;;;;;;5054610;28;20074;-45
2023/12/14 13:49:47;;;;;;;26.42;3.45;;;;;;;;;;5072722;28;20115;-44
2023/12/14 13:52:14;;;;;;;27.52;3.55;;;;;;;;;;5072561;28;20372;-45
2023/12/14 13:54:41;;;;;;;36.00;3.88;;;;;;;;;;5072484;28;20020;-45
2023/12/14 13:57:08;;;;;;;31.65;3.47;;;;;;;;;;5072594;28;20020;-44
2023/12/14 13:59:34;;;;;;;33.17;3.55;;;;;;;;;;5072513;28;20078;-49
2023/12/14 14:02:02;;;;;;;29.98;3.50;;;;;;;;;;5053918;28;20520;-48
2023/12/14 14:04:29;;;;;;;28.67;3.35;;;;;;;;;;5072358;28;20032;-48
2023/12/14 14:06:56;;;;;;;29.67;4.03;;;;;;;;;;5071795;28;20099;-48
2023/12/14 14:09:23;;;;;;;29.05;3.30;;;;;;;;;;5072072;28;20035;-48
2023/12/14 14:11:50;;;;;;;34.10;3.75;;;;;;;;;;5072187;28;20017;-49
2023/12/14 14:14:17;;;;;;;53.67;5.05;;;;;;;;;;5072232;28;20024;-48
2023/12/14 14:16:44;;;;;;;75.57;5.78;;;;;;;;;;5072200;28;20024;-50
2023/12/14 14:19:11;;;;;;;59.53;5.80;;;;;;;;;;5054051;28;20521;-48
2023/12/14 14:21:38;;;;;;;79.00;6.40;;;;;;;;;;5072018;28;20028;-49
2023/12/14 14:24:05;;;;;;;51.50;4.78;;;;;;;;;;5071990;28;20386;-49
2023/12/14 14:26:32;;;;;;;69.70;5.25;;;;;;;;;;5071980;28;20455;-49
2023/12/14 14:29:02;;;;;;;71.25;5.22;;;;;;;;;;5071944;28;20035;-48
2023/12/14 14:31:32;;;;;;;40.30;4.72;;;;;;;;;;5071900;28;20390;-48
2023/12/14 14:34:02;;;;;;;52.70;5.13;;;;;;;;;;5071929;28;20059;-50
2023/12/14 14:36:29;;;;;;;44.50;4.50;;;;;;;;;;5071871;28;20025;-49